Portada
METAR-TAF:

METAR-TAF

Aeropuertos :

Iğdır, Turquía

latitud: 39-58-36N, longitud: 43-52-36E, altitud: 945 m

Observación

El informe se hizo hace 12 horas y 29 minutos, a las 12:50 UTC
Viento 9 kt del suroeste
Temperatura 5°C
Humedad 65%
Presión 1024 hPa
Visibilidad 10 km o más
Nubes dispersas a una altura de 3500 ft
Cielo nuboso a una altura de 6000 ft

METAR: LTCT 051250Z 22009KT 9999 SCT035 BKN060 05/M01 Q1024

Hora: 04:19 (01:19 UTC)

Pronóstico

El informe se hizo hace 2 horas y 39 minutos, a las 22:40 UTC
Pronóstico válido del 06 a las 00 UTC al 06 a las 09 UTC
Viento 2 kt con dirección variable
Visibilidad 10 km o más
Nubes dispersas a una altura de 3500 ft
Cielo nuboso a una altura de 6000 ft

TAF: LTCT 052240Z 0600/0609 VRB02KT 9999 SCT035 BKN060

Observaciones y pronósticos meteorológicos de más de 4000 aeropuertos (mensajes METAR y TAF).

Los puntos amarillos y rojos representan las estaciones disponibles.

Ponga el ratón en el punto deseado para ver el nombre de la estación.

Haga clic para ver las observaciones y los pronósticos meteorológicos.

Para cambiar el mapa : haga clic en los botones verdes con una cruz de color negro para hacer un zoom, en el botón verde con un guión para alejar o en las flechas verdes para mapas adyacentes.


METAR-TAF: